Time;durP1;ratioP1;P1;durP2;ratioP2;P2;SDS_P1;SDS_P2;PMS_P1;PMS_P2;Temp;Humidity;BMP_temperature;BMP_pressure;BME280_temperature;BME280_humidity;BME280_pressure;Samples;Min_cycle;Max_cycle;Signal;HPM_P1;HPM_P2
2022/06/26 00:04:34;;;;;;;0.40;0.40;;;;;;;18.43;100.00;101162.59;10542389;28;20407;-76
2022/06/26 00:09:36;;;;;;;0.20;0.20;;;;;;;18.49;100.00;101178.25;10540041;28;20617;-75
2022/06/26 00:14:37;;;;;;;0.98;0.52;;;;;;;18.49;100.00;101189.53;10521581;28;20047;-74
2022/06/26 00:19:39;;;;;;;0.88;0.70;;;;;;;18.52;100.00;101204.31;10540163;28;20083;-75
2022/06/26 00:24:43;;;;;;;2.53;0.95;;;;;;;18.21;100.00;101230.41;10534027;28;20101;-75
2022/06/26 00:29:45;;;;;;;1.10;0.65;;;;;;;18.36;100.00;101198.25;10508129;28;20048;-74
2022/06/26 00:34:47;;;;;;;0.32;0.22;;;;;;;18.44;100.00;101201.72;10546383;28;20548;-75
2022/06/26 00:39:48;;;;;;;0.80;0.60;;;;;;;18.33;100.00;101206.97;10539362;28;20077;-76
2022/06/26 00:44:52;;;;;;;0.50;0.30;;;;;;;18.34;100.00;101189.56;10539394;28;20040;-78
2022/06/26 00:49:56;;;;;;;1.00;0.80;;;;;;;18.37;100.00;101189.56;10538351;28;20048;-77
2022/06/26 00:54:58;;;;;;;1.42;1.23;;;;;;;17.85;100.00;101221.69;10548334;28;20048;-78
2022/06/26 01:00:00;;;;;;;1.55;0.65;;;;;;;17.83;100.00;101244.31;10568501;28;20040;-77
2022/06/26 01:05:02;;;;;;;0.35;0.32;;;;;;;18.28;100.00;101216.50;10561466;28;20040;-75
2022/06/26 01:16:34;;;;;;;0.20;0.20;;;;;;;17.87;100.00;101178.28;10525881;28;20035;-78
2022/06/26 01:21:37;;;;;;;0.40;0.30;;;;;;;18.04;100.00;101196.53;10506275;28;20045;-77
2022/06/26 01:26:40;;;;;;;0.60;0.47;;;;;;;17.97;100.00;101211.34;10509158;28;20067;-77
2022/06/26 01:31:41;;;;;;;0.68;0.40;;;;;;;18.03;100.00;101216.53;10520734;28;20058;-77
2022/06/26 01:36:43;;;;;;;0.30;0.22;;;;;;;17.85;100.00;101214.78;10540693;28;20036;-78
2022/06/26 01:41:47;;;;;;;0.70;0.70;;;;;;;18.06;100.00;101206.09;10547283;28;20047;-77
2022/06/26 01:46:49;;;;;;;0.63;0.63;;;;;;;17.82;100.00;101222.56;10534088;28;20044;-75
2022/06/26 01:51:53;;;;;;;0.95;0.40;;;;;;;17.74;100.00;101213.88;10537172;28;20043;-75
2022/06/26 01:57:04;;;;;;;0.32;0.32;;;;;;;17.80;100.00;101208.66;10532204;28;20048;-75
2022/06/26 02:02:06;;;;;;;1.65;0.75;;;;;;;17.64;100.00;101225.16;10504948;28;20048;-75
2022/06/26 02:07:08;;;;;;;0.95;0.68;;;;;;;17.61;100.00;101220.78;10557142;28;20044;-77
2022/06/26 02:17:40;;;;;;;0.68;0.40;;;;;;;17.34;100.00;101225.09;10527465;28;20048;-75
2022/06/26 02:22:42;;;;;;;1.60;0.82;;;;;;;17.26;100.00;101221.59;10580021;28;20035;-78
2022/06/26 02:27:44;;;;;;;1.65;1.35;;;;;;;17.30;100.00;101223.34;10560580;28;20023;-76
2022/06/26 02:32:45;;;;;;;0.50;0.35;;;;;;;17.23;100.00;101225.06;10577875;28;20552;-76
2022/06/26 02:37:47;;;;;;;2.35;0.35;;;;;;;17.30;100.00;101225.97;10557720;28;20048;-76
2022/06/26 02:42:54;;;;;;;1.48;0.40;;;;;;;17.24;100.00;101215.50;10552806;28;20064;-76
2022/06/26 02:47:55;;;;;;;1.02;0.60;;;;;;;17.07;100.00;101233.66;10484934;28;20496;-77
2022/06/26 02:52:58;;;;;;;0.95;0.68;;;;;;;17.01;100.00;101247.53;10539316;28;20112;-75
2022/06/26 02:58:00;;;;;;;0.98;0.50;;;;;;;17.03;100.00;101240.59;10537227;28;20050;-75
2022/06/26 03:03:07;;;;;;;0.75;0.70;;;;;;;16.82;100.00;101233.53;10512976;28;20048;-75
2022/06/26 03:08:11;;;;;;;1.02;0.60;;;;;;;16.86;100.00;101231.81;10520980;28;20446;-76
2022/06/26 03:13:12;;;;;;;0.57;0.20;;;;;;;16.93;100.00;101233.63;10523419;28;20395;-76
2022/06/26 03:18:18;;;;;;;1.10;0.65;;;;;;;16.70;100.00;101252.53;10522379;28;20040;-75
2022/06/26 03:23:20;;;;;;;0.55;0.35;;;;;;;16.47;100.00;101260.16;10533465;28;20487;-76
2022/06/26 03:28:22;;;;;;;0.65;0.50;;;;;;;16.68;100.00;101264.66;10528131;28;20055;-75
2022/06/26 03:33:24;;;;;;;1.88;1.65;;;;;;;16.75;100.00;101276.84;10527946;28;20387;-75
2022/06/26 03:38:25;;;;;;;1.45;0.82;;;;;;;16.40;100.00;101303.47;10527891;28;20051;-76
2022/06/26 03:43:27;;;;;;;1.00;0.75;;;;;;;16.53;100.00;101324.38;10528861;28;20556;-76
2022/06/26 03:48:29;;;;;;;0.80;0.60;;;;;;;16.77;100.00;101324.56;10530252;28;20036;-75
2022/06/26 03:53:31;;;;;;;0.63;0.52;;;;;;;16.75;100.00;101323.69;10546528;28;20043;-77
2022/06/26 03:58:33;;;;;;;3.08;0.77;;;;;;;16.80;100.00;101329.78;10543022;28;20407;-77
2022/06/26 04:03:35;;;;;;;1.27;0.75;;;;;;;16.77;100.00;101340.19;10577845;28;20124;-77
2022/06/26 04:08:37;;;;;;;2.65;0.65;;;;;;;16.80;100.00;101357.53;10538075;28;20083;-78
2022/06/26 04:13:42;;;;;;;1.58;0.90;;;;;;;16.90;100.00;101348.91;10552478;28;20040;-78
2022/06/26 04:18:44;;;;;;;1.08;0.77;;;;;;;17.09;100.00;101355.16;10581632;28;20032;-77
2022/06/26 04:23:46;;;;;;;1.98;1.17;;;;;;;17.09;100.00;101360.34;10577033;28;20031;-76
2022/06/26 04:28:54;;;;;;;1.17;1.08;;;;;;;17.09;100.00;101369.91;10541854;28;20044;-77
2022/06/26 04:33:56;;;;;;;0.77;0.73;;;;;;;17.23;100.00;101362.19;10531797;28;20066;-76
2022/06/26 04:38:58;;;;;;;0.82;0.73;;;;;;;17.12;100.00;101365.59;10539971;28;20105;-76
2022/06/26 04:44:02;;;;;;;1.63;1.13;;;;;;;17.18;100.00;101375.19;10514906;28;20052;-76
2022/06/26 04:49:05;;;;;;;0.60;0.55;;;;;;;17.13;100.00;101364.75;10535238;28;20071;-76
2022/06/26 04:54:08;;;;;;;0.65;0.65;;;;;;;17.32;100.00;101375.25;10520285;28;20044;-75
2022/06/26 04:59:11;;;;;;;1.80;1.40;;;;;;;17.11;100.00;101379.47;10530876;28;20066;-78
2022/06/26 05:04:17;;;;;;;0.50;0.50;;;;;;;17.26;100.00;101376.09;10541064;28;20028;-77
2022/06/26 05:09:39;;;;;;;1.00;0.35;;;;;;;17.48;100.00;101378.81;10549337;28;20048;-76
2022/06/26 05:14:44;;;;;;;0.20;0.20;;;;;;;17.65;100.00;101371.06;10565959;28;20090;-76
2022/06/26 05:19:54;;;;;;;0.52;0.30;;;;;;;17.57;100.00;101380.59;10566403;28;20052;-75
2022/06/26 05:24:58;;;;;;;5.18;1.17;;;;;;;17.70;100.00;101387.59;10553304;28;20052;-77
2022/06/26 05:30:04;;;;;;;1.38;0.75;;;;;;;17.62;100.00;101396.25;10569757;28;20044;-76
2022/06/26 05:35:15;;;;;;;1.20;0.75;;;;;;;17.54;100.00;101398.78;10602145;28;20040;-74
2022/06/26 05:40:16;;;;;;;1.70;0.93;;;;;;;17.42;100.00;101403.09;10578050;28;20070;-75
2022/06/26 05:45:18;;;;;;;1.30;0.70;;;;;;;17.73;100.00;101399.75;10567971;28;20052;-75
2022/06/26 05:50:40;;;;;;;0.60;0.52;;;;;;;17.81;100.00;101418.91;10549221;28;20499;-75
2022/06/26 05:56:08;;;;;;;0.68;0.68;;;;;;;17.62;100.00;101428.38;10558575;28;20077;-76
2022/06/26 06:01:25;;;;;;;1.48;0.90;;;;;;;17.76;100.00;101416.28;10545489;28;20048;-76
2022/06/26 06:06:37;;;;;;;1.35;0.93;;;;;;;18.20;100.00;101421.69;10524375;28;20051;-77
2022/06/26 06:11:41;;;;;;;1.38;1.15;;;;;;;18.10;100.00;101425.97;10514690;28;20084;-77
2022/06/26 06:16:49;;;;;;;1.70;1.17;;;;;;;18.01;100.00;101432.03;10516749;28;20422;-77
2022/06/26 06:21:51;;;;;;;1.83;0.90;;;;;;;18.32;100.00;101439.97;10523188;28;20048;-76
2022/06/26 06:27:04;;;;;;;4.00;1.70;;;;;;;18.24;100.00;101449.50;10555138;28;20062;-76
2022/06/26 06:32:09;;;;;;;1.33;1.02;;;;;;;17.76;100.00;101457.97;10592301;28;20032;-75
2022/06/26 06:37:13;;;;;;;1.30;1.20;;;;;;;18.16;100.00;101466.84;10553704;28;20047;-75
2022/06/26 06:42:16;;;;;;;0.70;0.70;;;;;;;18.19;100.00;101469.50;10552094;28;20028;-76
2022/06/26 06:47:18;;;;;;;2.13;1.13;;;;;;;18.20;100.00;101468.63;10583931;28;20055;-76
2022/06/26 06:52:39;;;;;;;0.80;0.47;;;;;;;18.49;100.00;101492.16;10580307;28;20048;-76
2022/06/26 06:57:51;;;;;;;0.63;0.63;;;;;;;18.91;98.27;101505.28;10574997;28;20411;-75
2022/06/26 07:02:58;;;;;;;1.48;0.55;;;;;;;18.85;94.96;101505.28;10543000;28;20051;-76
2022/06/26 07:08:04;;;;;;;1.60;0.88;;;;;;;19.75;93.55;101489.56;10537189;28;20044;-76
2022/06/26 07:13:06;;;;;;;0.73;0.45;;;;;;;19.73;87.75;101486.09;10547106;28;20116;-76
2022/06/26 07:18:07;;;;;;;0.45;0.45;;;;;;;19.84;85.76;101488.66;10572650;28;20036;-77
2022/06/26 07:23:09;;;;;;;0.88;0.50;;;;;;;19.68;87.29;101480.84;10553242;28;20049;-76
2022/06/26 07:29:29;;;;;;;0.68;0.35;;;;;;;19.70;89.18;101481.72;10531594;28;20050;-76
2022/06/26 07:34:32;;;;;;;1.73;0.50;;;;;;;20.00;86.82;101484.25;10552986;28;20036;-76
2022/06/26 07:39:36;;;;;;;0.90;0.77;;;;;;;20.72;82.35;101486.53;10560284;28;20113;-76
2022/06/26 07:44:38;;;;;;;0.38;0.38;;;;;;;21.08;82.44;101483.63;10552459;28;20044;-76
2022/06/26 07:49:41;;;;;;;1.85;0.55;;;;;;;20.33;78.34;101492.84;10553798;28;20040;-76
2022/06/26 07:54:44;;;;;;;0.32;0.32;;;;;;;20.18;79.41;101515.59;10566012;28;20044;-77
2022/06/26 07:59:46;;;;;;;0.30;0.30;;;;;;;20.41;79.20;101525.09;10552182;28;20058;-76
2022/06/26 08:04:48;;;;;;;0.38;0.35;;;;;;;19.86;81.07;101545.34;10542901;28;20134;-76
2022/06/26 08:09:50;;;;;;;0.73;0.57;;;;;;;21.66;76.35;101531.16;10529213;28;20043;-77
2022/06/26 08:14:56;;;;;;;0.60;0.30;;;;;;;21.10;69.06;101526.41;10546103;28;20047;-77
2022/06/26 08:19:58;;;;;;;0.40;0.40;;;;;;;21.40;71.14;101527.88;10527524;28;20131;-76
2022/06/26 08:25:25;;;;;;;1.90;0.63;;;;;;;20.90;73.03;101540.50;10559644;28;20065;-77
2022/06/26 08:30:28;;;;;;;0.17;0.13;;;;;;;22.06;73.10;101530.72;10567036;28;20498;-77
2022/06/26 08:35:32;;;;;;;0.30;0.30;;;;;;;21.67;68.56;101525.03;10554986;28;20044;-77
2022/06/26 08:40:39;;;;;;;0.15;0.15;;;;;;;21.18;67.20;101527.22;10556046;28;20067;-77
2022/06/26 08:46:34;;;;;;;0.20;0.20;;;;;;;21.62;69.57;101532.94;10582410;28;20023;-77
2022/06/26 08:51:41;;;;;;;0.20;0.20;;;;;;;21.78;69.40;101538.03;10549523;28;20062;-75
2022/06/26 08:56:45;;;;;;;0.55;0.40;;;;;;;22.27;61.41;101536.59;10512982;28;20101;-76
2022/06/26 09:02:13;;;;;;;0.93;0.43;;;;;;;21.41;68.13;101533.97;10509180;28;20052;-74
2022/06/26 09:07:22;;;;;;;0.25;0.10;;;;;;;22.31;60.69;101543.53;10493696;28;20374;-76
2022/06/26 09:12:35;;;;;;;0.38;0.10;;;;;;;22.02;64.83;101543.03;10530525;28;20059;-76
2022/06/26 09:17:40;;;;;;;0.45;0.45;;;;;;;21.17;63.46;101538.59;10510610;28;20044;-76
2022/06/26 09:22:56;;;;;;;0.63;0.20;;;;;;;21.62;63.25;101538.19;10538417;28;20166;-76
2022/06/26 09:28:04;;;;;;;0.20;0.10;;;;;;;22.37;59.61;101535.59;10519910;28;20387;-76
2022/06/26 09:33:34;;;;;;;0.10;0.10;;;;;;;21.66;59.55;101533.78;10543042;28;20104;-76
2022/06/26 09:38:36;;;;;;;0.20;0.00;;;;;;;22.07;61.43;101527.22;10530486;28;20395;-75
2022/06/26 09:44:39;;;;;;;0.22;0.22;;;;;;;21.86;59.06;101521.31;10513411;28;20384;-75
2022/06/26 09:49:40;;;;;;;2.65;1.23;;;;;;;22.08;58.06;101531.56;10517295;28;20058;-74
2022/06/26 09:54:42;;;;;;;0.30;0.30;;;;;;;22.25;62.92;101533.09;10537268;28;20503;-75
2022/06/26 09:59:44;;;;;;;0.10;0.10;;;;;;;21.86;58.73;101528.34;10505448;28;20160;-74
2022/06/26 10:10:07;;;;;;;0.20;0.20;;;;;;;22.00;59.21;101541.31;10529835;28;20040;-75
2022/06/26 10:15:11;;;;;;;0.20;0.10;;;;;;;22.32;60.34;101533.03;10512309;28;20410;-76
2022/06/26 10:20:18;;;;;;;0.00;0.00;;;;;;;22.53;56.62;101543.25;10519798;28;20039;-76
2022/06/26 10:25:23;;;;;;;0.20;0.20;;;;;;;21.50;61.13;101554.03;10515253;28;20045;-76
2022/06/26 10:30:26;;;;;;;0.10;0.10;;;;;;;21.48;61.59;101556.63;10517561;28;20087;-75
2022/06/26 10:35:46;;;;;;;0.13;0.05;;;;;;;22.00;63.24;101557.03;10522326;28;20538;-80
2022/06/26 10:46:44;;;;;;;0.00;0.00;;;;;;;22.12;57.45;101575.25;10506860;28;20121;-82
2022/06/26 10:51:46;;;;;;;0.45;0.28;;;;;;;21.90;59.45;101568.50;10503834;28;20044;-82
2022/06/26 10:57:06;;;;;;;0.00;0.00;;;;;;;21.80;59.68;101568.59;10508075;28;20820;-84
2022/06/26 11:02:11;;;;;;;;;;;;;;;21.90;56.72;101576.38;10522254;28;20048;-83
2022/06/26 11:07:18;;;;;;;0.32;0.20;;;;;;;21.81;61.61;101575.59;10491257;28;19923;-75
2022/06/26 11:12:23;;;;;;;0.20;0.10;;;;;;;21.59;63.88;101581.94;10548292;28;20494;-76
2022/06/26 11:17:24;;;;;;;0.00;0.00;;;;;;;21.80;64.17;101586.97;10536343;28;20360;-75
2022/06/26 11:22:27;;;;;;;0.20;0.20;;;;;;;21.11;61.59;101580.53;10545834;28;20040;-75
2022/06/26 11:27:29;;;;;;;0.55;0.20;;;;;;;21.44;62.47;101578.53;10518252;28;20444;-75
2022/06/26 11:32:34;;;;;;;0.65;0.50;;;;;;;21.59;64.01;101579.31;10529179;28;20086;-75
2022/06/26 11:37:38;;;;;;;0.13;0.13;;;;;;;21.72;62.45;101580.91;10525668;28;20042;-75
2022/06/26 11:42:41;;;;;;;5.47;0.28;;;;;;;21.00;67.32;101592.84;10526686;28;20047;-75
2022/06/26 11:47:42;;;;;;;0.75;0.28;;;;;;;20.70;69.78;101602.59;10527801;28;20059;-75
2022/06/26 11:53:35;;;;;;;0.13;0.05;;;;;;;20.55;69.36;101601.78;10514516;28;20041;-75
2022/06/26 11:58:46;;;;;;;0.30;0.30;;;;;;;20.45;71.90;101607.91;10523704;28;20048;-75
2022/06/26 12:03:52;;;;;;;0.10;0.10;;;;;;;20.60;72.21;101602.63;10529105;28;20043;-75
2022/06/26 12:08:56;;;;;;;0.10;0.10;;;;;;;20.08;73.21;101608.03;10525358;28;20044;-75
2022/06/26 12:14:09;;;;;;;2.55;0.63;;;;;;;20.04;73.36;101607.19;10523794;28;20105;-75
2022/06/26 12:19:11;;;;;;;0.25;0.20;;;;;;;19.89;74.07;101605.47;10529399;28;20097;-75
2022/06/26 12:24:16;;;;;;;0.10;0.10;;;;;;;19.74;76.43;101614.16;10513587;28;20123;-75
2022/06/26 12:29:21;;;;;;;0.10;0.10;;;;;;;19.91;76.24;101624.66;10523416;28;20032;-75
2022/06/26 12:34:25;;;;;;;0.30;0.30;;;;;;;19.91;78.78;101621.16;10509033;28;20044;-74
2022/06/26 12:39:27;;;;;;;0.20;0.10;;;;;;;19.74;78.89;101621.16;10533411;28;20071;-74
2022/06/26 12:44:44;;;;;;;0.43;0.40;;;;;;;19.70;80.47;101640.31;10529604;28;20407;-75
2022/06/26 12:49:46;;;;;;;0.47;0.20;;;;;;;20.00;80.98;101635.94;10515736;28;20075;-75
2022/06/26 12:54:49;;;;;;;0.17;0.17;;;;;;;19.82;78.29;101632.47;10528350;28;20039;-76
2022/06/26 12:59:54;;;;;;;0.20;0.20;;;;;;;19.95;79.07;101634.22;10541000;28;20127;-74
2022/06/26 13:05:14;;;;;;;0.20;0.20;;;;;;;20.35;79.59;101624.56;10520062;28;20044;-74
2022/06/26 13:10:16;;;;;;;3.20;0.25;;;;;;;19.96;77.09;101625.50;10532831;28;20048;-73
2022/06/26 13:15:19;;;;;;;0.00;0.00;;;;;;;19.81;77.74;101630.72;10540224;28;20044;-75
2022/06/26 13:20:21;;;;;;;0.05;0.05;;;;;;;20.01;80.01;101642.94;10510203;28;20045;-74
2022/06/26 13:25:22;;;;;;;0.35;0.20;;;;;;;19.97;76.80;101624.66;10504271;28;20097;-74
2022/06/26 13:30:24;;;;;;;0.20;0.10;;;;;;;20.55;77.21;101614.88;10506189;28;20040;-74
2022/06/26 13:35:26;;;;;;;0.00;0.00;;;;;;;20.97;76.99;101612.06;10518534;28;20487;-74
2022/06/26 13:40:29;;;;;;;0.25;0.10;;;;;;;20.81;75.02;101611.31;10532830;28;20372;-74
2022/06/26 13:45:30;;;;;;;0.30;0.10;;;;;;;20.80;77.04;101596.47;10533632;28;20040;-74
2022/06/26 13:50:32;;;;;;;0.20;0.17;;;;;;;20.95;73.92;101589.41;10509696;28;20119;-73
2022/06/26 13:55:34;;;;;;;0.88;0.47;;;;;;;20.39;75.38;101605.34;10516367;28;20040;-75
2022/06/26 14:00:37;;;;;;;0.20;0.20;;;;;;;20.42;76.17;101610.56;10513224;28;20494;-74
2022/06/26 14:05:41;;;;;;;0.00;0.00;;;;;;;20.67;77.76;101607.81;10520098;28;20089;-74
2022/06/26 14:10:43;;;;;;;0.30;0.30;;;;;;;20.68;77.46;101613.06;10538425;28;20130;-74
2022/06/26 14:15:45;;;;;;;0.40;0.40;;;;;;;20.47;77.28;101615.78;10513016;28;20040;-74
2022/06/26 14:20:51;;;;;;;0.00;0.00;;;;;;;20.50;72.38;101606.19;10536742;28;20089;-74
2022/06/26 14:25:59;;;;;;;0.20;0.20;;;;;;;20.54;74.01;101618.38;10522325;28;20097;-75
2022/06/26 14:31:04;;;;;;;0.10;0.10;;;;;;;20.40;75.16;101626.25;10543423;28;20498;-74
2022/06/26 14:36:06;;;;;;;0.20;0.20;;;;;;;20.33;74.48;101616.69;10531193;28;20064;-74
2022/06/26 14:41:10;;;;;;;0.20;0.10;;;;;;;20.41;74.49;101606.22;10492349;28;20063;-74
2022/06/26 14:46:15;;;;;;;0.82;0.68;;;;;;;20.57;75.24;101597.41;10515066;28;20054;-75
2022/06/26 14:51:17;;;;;;;0.65;0.60;;;;;;;20.29;76.21;101597.50;10514713;28;20040;-74
2022/06/26 14:56:19;;;;;;;0.10;0.10;;;;;;;20.43;74.53;101594.00;10531687;28;20062;-74
2022/06/26 15:01:20;;;;;;;0.00;0.00;;;;;;;20.51;75.83;101586.97;10544027;28;20059;-73
2022/06/26 15:06:22;;;;;;;0.30;0.30;;;;;;;20.46;75.96;101593.97;10537960;28;20053;-73
2022/06/26 15:11:23;;;;;;;0.08;0.08;;;;;;;20.39;75.04;101592.25;10520678;28;20449;-74
2022/06/26 15:16:28;;;;;;;0.03;0.03;;;;;;;20.28;78.02;101590.56;10557976;28;20097;-75
2022/06/26 15:21:29;;;;;;;0.30;0.13;;;;;;;20.22;74.27;101590.56;10538395;28;20287;-74
2022/06/26 15:26:32;;;;;;;0.10;0.08;;;;;;;20.25;76.54;101592.31;10503699;28;20052;-76
2022/06/26 15:31:34;;;;;;;0.00;0.00;;;;;;;20.07;77.11;101585.38;10511300;28;20206;-76
2022/06/26 15:36:36;;;;;;;0.10;0.10;;;;;;;20.11;76.70;101584.50;10528707;28;20309;-76
2022/06/26 15:41:38;;;;;;;0.20;0.20;;;;;;;20.04;77.24;101569.69;10529021;28;20112;-76
2022/06/26 15:46:39;;;;;;;0.10;0.10;;;;;;;20.05;79.90;101576.69;10519357;28;20036;-76
2022/06/26 15:51:41;;;;;;;0.17;0.10;;;;;;;19.96;77.46;101582.78;10540066;28;20056;-77
2022/06/26 15:56:42;;;;;;;0.00;0.00;;;;;;;19.85;75.75;101574.97;10531264;28;20101;-77
2022/06/26 16:01:49;;;;;;;0.65;0.30;;;;;;;20.06;76.71;101568.81;10536122;28;20073;-76
2022/06/26 16:06:51;;;;;;;5.47;0.55;;;;;;;19.87;74.96;101578.47;10506580;28;20063;-75
2022/06/26 16:11:52;;;;;;;0.10;0.10;;;;;;;20.14;75.50;101579.28;10531919;28;20097;-75
2022/06/26 16:16:54;;;;;;;0.43;0.30;;;;;;;20.13;75.68;101564.44;10523601;28;20044;-75
2022/06/26 16:27:18;;;;;;;0.00;0.00;;;;;;;20.06;77.13;101544.44;10537432;28;20238;-75
2022/06/26 16:32:22;;;;;;;0.43;0.22;;;;;;;20.10;79.27;101533.06;10538525;28;20051;-75
2022/06/26 16:37:24;;;;;;;0.05;0.05;;;;;;;20.32;73.11;101514.66;10530757;28;20040;-76
2022/06/26 16:42:27;;;;;;;0.05;0.05;;;;;;;20.53;73.22;101517.16;10522532;28;20044;-75
2022/06/26 16:47:29;;;;;;;0.20;0.20;;;;;;;20.36;73.50;101513.78;10521625;28;20032;-76
2022/06/26 16:52:31;;;;;;;0.00;0.00;;;;;;;20.41;74.19;101504.16;10516274;28;20488;-76
2022/06/26 16:57:39;;;;;;;0.20;0.13;;;;;;;20.64;75.50;101497.91;10538310;28;20051;-76
2022/06/26 17:02:41;;;;;;;0.40;0.28;;;;;;;20.84;75.07;101505.66;10544997;28;20044;-76
2022/06/26 17:07:43;;;;;;;0.10;0.10;;;;;;;20.84;70.82;101506.50;10515298;28;20044;-76
2022/06/26 17:12:45;;;;;;;0.00;0.00;;;;;;;20.99;75.47;101512.50;10534758;28;20689;-76
2022/06/26 17:17:55;;;;;;;0.00;0.00;;;;;;;20.76;74.94;101522.28;10521028;28;20047;-76
2022/06/26 17:22:56;;;;;;;0.20;0.20;;;;;;;21.01;72.54;101521.25;10522397;28;20040;-76
2022/06/26 17:27:59;;;;;;;0.40;0.32;;;;;;;21.17;71.75;101524.59;10529449;28;20036;-77
2022/06/26 17:33:01;;;;;;;0.20;0.15;;;;;;;20.82;71.32;101534.44;10524028;28;20040;-78
2022/06/26 17:38:03;;;;;;;0.20;0.10;;;;;;;20.95;70.45;101537.88;10532095;28;20098;-77
2022/06/26 17:43:05;;;;;;;0.13;0.00;;;;;;;20.69;74.43;101538.91;10529373;28;20048;-76
2022/06/26 17:48:09;;;;;;;0.00;0.00;;;;;;;20.65;74.95;101537.16;10527604;28;20051;-76
2022/06/26 17:53:11;;;;;;;0.00;0.00;;;;;;;20.46;76.83;101518.06;10525054;28;20051;-76
2022/06/26 17:58:13;;;;;;;0.03;0.03;;;;;;;20.53;80.58;101516.28;10490929;28;20559;-75
2022/06/26 18:03:17;;;;;;;1.38;0.40;;;;;;;20.47;75.25;101506.72;10503555;28;20059;-76
2022/06/26 18:08:19;;;;;;;0.00;0.00;;;;;;;20.33;75.76;101490.22;10535109;28;20031;-80
2022/06/26 18:13:21;;;;;;;0.00;0.00;;;;;;;20.46;75.30;101489.28;10525700;28;20093;-78
2022/06/26 18:18:23;;;;;;;0.10;0.10;;;;;;;20.07;78.29;101465.06;10536737;28;20194;-78
2022/06/26 18:23:26;;;;;;;0.10;0.10;;;;;;;20.03;78.02;101468.56;10527443;28;20067;-78
2022/06/26 18:28:28;;;;;;;0.10;0.10;;;;;;;19.88;79.13;101467.75;10535329;28;20044;-78
2022/06/26 18:33:30;;;;;;;0.75;0.40;;;;;;;20.10;79.33;101480.75;10546297;28;20040;-80
2022/06/26 18:38:33;;;;;;;1.17;0.30;;;;;;;19.97;79.42;101485.16;10530650;28;20115;-80
2022/06/26 18:43:37;;;;;;;0.40;0.10;;;;;;;20.06;81.42;101486.88;10550500;28;20044;-80
2022/06/26 18:48:39;;;;;;;0.10;0.10;;;;;;;19.89;80.28;101508.72;10550956;28;20077;-80
2022/06/26 18:53:41;;;;;;;0.30;0.15;;;;;;;19.96;82.18;101506.94;10537460;28;20093;-80
2022/06/26 18:58:42;;;;;;;0.10;0.10;;;;;;;19.95;84.23;101523.53;10551809;28;20225;-79
2022/06/26 19:03:44;;;;;;;0.00;0.00;;;;;;;19.85;85.67;101533.13;10549306;28;20044;-79
2022/06/26 19:08:46;;;;;;;0.10;0.10;;;;;;;19.76;85.15;101535.75;10527292;28;20380;-79
2022/06/26 19:19:08;;;;;;;0.10;0.10;;;;;;;19.26;87.98;101532.31;10549545;28;20480;-79
2022/06/26 19:24:10;;;;;;;0.10;0.10;;;;;;;19.62;86.25;101546.22;10545228;28;20073;-80
2022/06/26 19:29:13;;;;;;;0.13;0.08;;;;;;;19.65;86.20;101565.38;10535965;28;20392;-80
2022/06/26 19:34:15;;;;;;;0.15;0.10;;;;;;;19.53;85.18;101573.25;10544234;28;20097;-80
2022/06/26 19:39:17;;;;;;;0.20;0.10;;;;;;;19.33;84.96;101571.50;10543342;28;20051;-79
2022/06/26 19:44:19;;;;;;;0.03;0.03;;;;;;;19.00;90.66;101560.16;10543538;28;20043;-79
2022/06/26 19:50:34;;;;;;;0.55;0.40;;;;;;;19.19;88.87;101552.34;10528459;28;20040;-80
2022/06/26 19:54:43;;;;;;;0.45;0.30;;;;;;;19.08;90.17;101549.72;10540511;28;20097;-79
2022/06/26 19:59:45;;;;;;;0.75;0.45;;;;;;;19.06;89.89;101558.44;10542493;28;20035;-80
2022/06/26 20:04:47;;;;;;;0.32;0.10;;;;;;;19.14;89.64;101559.31;10544720;28;20047;-79
2022/06/26 20:09:48;;;;;;;0.20;0.20;;;;;;;19.17;90.30;101577.59;10540589;28;20044;-79
2022/06/26 20:14:50;;;;;;;0.08;0.03;;;;;;;19.03;92.98;101562.78;10551382;28;20044;-78
2022/06/26 20:19:52;;;;;;;0.55;0.28;;;;;;;18.66;94.49;101562.66;10535880;28;20040;-80
2022/06/26 20:24:55;;;;;;;0.00;0.00;;;;;;;18.55;95.55;101564.38;10559348;28;20078;-79
2022/06/26 20:30:15;;;;;;;0.20;0.20;;;;;;;18.64;92.13;101563.53;10559397;28;20089;-80
2022/06/26 20:35:18;;;;;;;0.20;0.20;;;;;;;18.36;97.10;101568.66;10547141;28;20131;-79
2022/06/26 20:40:21;;;;;;;0.13;0.05;;;;;;;18.33;100.00;101571.25;10543179;28;20040;-78
2022/06/26 20:45:23;;;;;;;0.30;0.30;;;;;;;18.59;97.90;101565.25;10527828;28;20601;-80
2022/06/26 20:50:26;;;;;;;0.00;0.00;;;;;;;18.19;99.51;101550.34;10535668;28;20040;-79
2022/06/26 20:55:28;;;;;;;0.10;0.08;;;;;;;18.20;98.18;101565.13;10520031;28;20135;-80
2022/06/26 21:00:30;;;;;;;0.13;0.13;;;;;;;17.89;100.00;101565.78;10543886;28;20040;-80
2022/06/26 21:05:32;;;;;;;0.00;0.00;;;;;;;17.82;100.00;101570.94;10537034;28;20048;-79
2022/06/26 21:10:34;;;;;;;0.30;0.20;;;;;;;18.02;99.84;101555.47;10538849;28;20040;-79
2022/06/26 21:15:35;;;;;;;0.77;0.38;;;;;;;18.06;100.00;101570.25;10527877;28;20074;-80
2022/06/26 21:20:39;;;;;;;0.10;0.10;;;;;;;18.01;100.00;101577.19;10512736;28;20036;-80
2022/06/26 21:25:41;;;;;;;0.25;0.17;;;;;;;17.99;100.00;101579.75;10500733;28;20427;-80
2022/06/26 21:30:43;;;;;;;0.10;0.08;;;;;;;18.16;98.95;101586.81;10541830;28;20089;-79
2022/06/26 21:35:46;;;;;;;0.95;0.75;;;;;;;17.83;100.00;101588.34;10534880;28;20114;-79
2022/06/26 21:40:52;;;;;;;0.00;0.00;;;;;;;17.69;100.00;101586.47;10522480;28;20509;-79
2022/06/26 21:45:54;;;;;;;0.22;0.20;;;;;;;17.73;100.00;101582.16;10531247;28;20039;-79
2022/06/26 21:50:57;;;;;;;0.20;0.13;;;;;;;17.69;100.00;101552.59;10529675;28;20063;-80
2022/06/26 21:55:58;;;;;;;0.15;0.03;;;;;;;17.73;100.00;101551.78;10539615;28;20044;-80
2022/06/26 22:01:00;;;;;;;0.65;0.30;;;;;;;17.62;100.00;101550.81;10542659;28;20047;-78
2022/06/26 22:06:05;;;;;;;0.35;0.30;;;;;;;17.62;100.00;101547.34;10532044;28;20087;-80
2022/06/26 22:11:06;;;;;;;0.20;0.20;;;;;;;17.68;100.00;101537.88;10499579;28;20565;-80
2022/06/26 22:16:08;;;;;;;0.40;0.25;;;;;;;17.70;100.00;101530.91;10529061;28;20048;-80
2022/06/26 22:21:10;;;;;;;0.30;0.30;;;;;;;17.65;100.00;101523.94;10518356;28;20040;-80
2022/06/26 22:31:36;;;;;;;1.08;0.50;;;;;;;17.63;100.00;101517.84;10476929;28;20450;-80
2022/06/26 22:36:38;;;;;;;0.30;0.20;;;;;;;17.63;100.00;101523.91;10502152;28;20044;-80
2022/06/26 22:41:41;;;;;;;0.30;0.22;;;;;;;17.81;98.72;101511.88;10502197;28;20570;-79
2022/06/26 22:46:44;;;;;;;0.30;0.10;;;;;;;17.86;97.65;101515.34;10529920;28;20522;-79
2022/06/26 22:51:45;;;;;;;0.15;0.15;;;;;;;17.86;97.98;101521.47;10538543;28;20044;-79
2022/06/26 22:56:47;;;;;;;0.30;0.30;;;;;;;17.98;99.45;101518.09;10532777;28;20388;-79
2022/06/26 23:01:48;;;;;;;0.10;0.10;;;;;;;17.61;100.00;101525.63;10521001;28;20499;-79
2022/06/26 23:06:50;;;;;;;8.48;0.43;;;;;;;17.47;100.00;101529.88;10542644;28;20467;-79
2022/06/26 23:12:09;;;;;;;0.03;0.03;;;;;;;17.59;100.00;101524.78;10539032;28;20036;-79
2022/06/26 23:17:12;;;;;;;;;;;;;;;17.81;100.00;101519.69;10535368;28;20040;-79
2022/06/26 23:22:14;;;;;;;0.25;0.20;;;;;;;17.34;100.00;101515.91;10542670;28;19924;-79
2022/06/26 23:27:16;;;;;;;0.00;0.00;;;;;;;17.37;100.00;101506.38;10538175;28;20491;-79
2022/06/26 23:32:18;;;;;;;0.85;0.45;;;;;;;17.46;100.00;101502.09;10539057;28;20441;-79
2022/06/26 23:37:21;;;;;;;0.00;0.00;;;;;;;17.42;100.00;101490.78;10545428;28;20036;-79
2022/06/26 23:42:23;;;;;;;0.38;0.38;;;;;;;17.68;100.00;101490.06;10526902;28;20040;-79
2022/06/26 23:47:25;;;;;;;0.28;0.20;;;;;;;17.54;100.00;101509.09;10511109;28;20055;-79
2022/06/26 23:52:30;;;;;;;0.45;0.43;;;;;;;17.56;100.00;101503.88;10540434;28;20487;-79
2022/06/26 23:57:31;;;;;;;0.20;0.10;;;;;;;17.54;100.00;101518.63;10544600;28;20089;-79
